Time;durP1;ratioP1;P1;durP2;ratioP2;P2;SDS_P1;SDS_P2;PMS_P1;PMS_P2;Temp;Humidity;BMP_temperature;BMP_pressure;BME280_temperature;BME280_humidity;BME280_pressure;Samples;Min_cycle;Max_cycle;Signal;HPM_P1;HPM_P2
2022/10/21 00:01:11;;;;;;;5.28;1.48;;;;;;;12.74;100.00;98756.97;5025583;28;20037;-78
2022/10/21 00:03:37;;;;;;;4.93;1.70;;;;;;;12.55;100.00;98753.63;4997741;28;20064;-76
2022/10/21 00:06:04;;;;;;;7.40;1.50;;;;;;;12.53;100.00;98751.16;4992139;28;20032;-80
2022/10/21 00:08:30;;;;;;;10.55;2.15;;;;;;;12.54;100.00;98736.63;5030767;28;20214;-78
2022/10/21 00:10:58;;;;;;;10.05;1.88;;;;;;;12.70;100.00;98743.16;5014344;28;20399;-80
2022/10/21 00:13:26;;;;;;;5.93;1.48;;;;;;;12.81;100.00;98727.16;5008327;28;20061;-80
2022/10/21 00:16:00;;;;;;;3.78;1.50;;;;;;;12.81;100.00;98724.44;5009331;28;20047;-79
2022/10/21 00:18:26;;;;;;;9.45;2.08;;;;;;;12.55;100.00;98678.13;5029768;28;20060;-78
2022/10/21 00:20:52;;;;;;;6.65;1.80;;;;;;;12.75;100.00;98705.50;4991586;28;20124;-81
2022/10/21 00:23:18;;;;;;;10.93;1.90;;;;;;;12.85;100.00;98701.34;5022588;28;20463;-78
2022/10/21 00:25:43;;;;;;;7.15;1.75;;;;;;;13.13;100.00;98695.94;5012417;28;21632;-78
2022/10/21 00:28:09;;;;;;;7.32;2.00;;;;;;;13.10;100.00;98682.94;5045424;28;20044;-79
2022/10/21 00:30:34;;;;;;;12.13;2.30;;;;;;;13.18;100.00;98684.44;5013025;28;20088;-77
2022/10/21 00:33:00;;;;;;;8.25;1.75;;;;;;;13.13;100.00;98655.47;5011718;28;20053;-77
2022/10/21 00:35:26;;;;;;;9.23;2.17;;;;;;;13.32;100.00;98674.97;5028409;28;20037;-78
2022/10/21 00:37:51;;;;;;;6.80;1.58;;;;;;;13.25;100.00;98652.69;4992956;28;20419;-79
2022/10/21 00:40:17;;;;;;;10.07;1.60;;;;;;;13.25;100.00;98666.16;5030053;28;20041;-79
2022/10/21 00:42:43;;;;;;;6.13;1.55;;;;;;;13.09;100.00;98654.31;5029762;28;20034;-79
2022/10/21 00:45:08;;;;;;;3.58;1.42;;;;;;;13.18;100.00;98655.56;5007906;28;20021;-78
2022/10/21 00:47:42;;;;;;;6.18;1.80;;;;;;;13.03;100.00;98655.28;5027381;28;20499;-78
2022/10/21 00:50:17;;;;;;;7.32;2.15;;;;;;;12.96;100.00;98635.72;4995791;28;20029;-80
2022/10/21 00:52:42;;;;;;;2.78;1.35;;;;;;;12.87;100.00;98629.91;5011739;28;20033;-77
2022/10/21 00:55:08;;;;;;;3.47;1.08;;;;;;;12.81;100.00;98630.06;4992964;28;20049;-79
2022/10/21 00:57:34;;;;;;;5.78;1.77;;;;;;;12.70;100.00;98629.91;4990376;28;20553;-78
2022/10/21 01:00:01;;;;;;;2.90;1.50;;;;;;;12.68;100.00;98628.50;5008118;28;20041;-78
2022/10/21 01:02:27;;;;;;;8.02;2.30;;;;;;;12.44;100.00;98607.03;5010573;28;20056;-78
2022/10/21 01:04:57;;;;;;;2.67;1.50;;;;;;;12.29;100.00;98594.06;5007071;28;20391;-79
2022/10/21 01:07:23;;;;;;;5.25;2.00;;;;;;;12.41;100.00;98601.28;5010033;28;20057;-82
2022/10/21 01:09:49;;;;;;;3.22;1.50;;;;;;;12.31;100.00;98586.56;4993474;28;20034;-78
2022/10/21 01:12:38;;;;;;;12.60;1.23;;;;;;;12.28;100.00;98586.25;5010465;28;20045;-80
2022/10/21 01:15:19;;;;;;;3.92;1.60;;;;;;;12.32;100.00;98587.38;5026531;28;20037;-78
2022/10/21 01:17:51;;;;;;;7.47;2.00;;;;;;;12.34;100.00;98576.38;5026425;28;20472;-79
2022/10/21 01:20:46;;;;;;;3.75;1.38;;;;;;;12.42;100.00;98570.59;5028674;28;20491;-79
2022/10/21 01:23:56;;;;;;;3.40;1.10;;;;;;;12.48;100.00;98565.03;4998801;28;20053;-78
2022/10/21 01:26:52;;;;;;;4.40;1.35;;;;;;;12.72;100.00;98568.44;5024682;28;20439;-79
2022/10/21 01:29:46;;;;;;;6.75;1.42;;;;;;;12.89;100.00;98549.59;5024293;28;20029;-78
2022/10/21 01:32:27;;;;;;;3.45;1.38;;;;;;;12.94;100.00;98538.06;5027215;28;20033;-80
2022/10/21 01:35:20;;;;;;;5.18;1.73;;;;;;;12.87;100.00;98538.22;4989839;28;20045;-78
2022/10/21 01:37:55;;;;;;;4.72;1.92;;;;;;;12.93;100.00;98534.53;5004899;28;20127;-78
2022/10/21 01:40:27;;;;;;;8.45;1.83;;;;;;;12.97;100.00;98526.78;4991489;28;20064;-78
2022/10/21 01:43:00;;;;;;;6.00;1.73;;;;;;;12.93;100.00;98514.84;5026948;28;20382;-77
2022/10/21 01:45:35;;;;;;;5.85;1.88;;;;;;;13.00;100.00;98512.00;5009329;28;20499;-79
2022/10/21 01:48:04;;;;;;;7.32;1.90;;;;;;;12.91;100.00;98487.28;5010945;28;20045;-79
2022/10/21 01:50:35;;;;;;;7.60;1.60;;;;;;;12.92;100.00;98491.63;5002839;28;20399;-80
2022/10/21 01:53:05;;;;;;;5.93;1.77;;;;;;;12.81;100.00;98482.56;5031655;28;20025;-79
2022/10/21 01:55:31;;;;;;;3.80;1.30;;;;;;;12.90;100.00;98474.88;4992660;28;20163;-81
2022/10/21 01:58:13;;;;;;;6.95;2.75;;;;;;;12.85;100.00;98478.31;5029186;28;20361;-78
2022/10/21 02:00:40;;;;;;;3.80;1.55;;;;;;;12.84;100.00;98460.50;5025653;28;20071;-78
2022/10/21 02:03:08;;;;;;;8.85;1.98;;;;;;;12.86;100.00;98444.06;5026268;28;20041;-78
2022/10/21 02:05:34;;;;;;;4.43;1.63;;;;;;;12.71;100.00;98441.97;5024873;28;20082;-77
2022/10/21 02:08:00;;;;;;;5.30;1.73;;;;;;;12.84;100.00;98449.72;5026087;28;20393;-79
2022/10/21 02:10:29;;;;;;;5.53;1.58;;;;;;;12.97;100.00;98448.56;5024059;28;20045;-78
2022/10/21 02:12:57;;;;;;;5.47;1.98;;;;;;;13.14;100.00;98433.13;5010086;28;20041;-79
2022/10/21 02:15:24;;;;;;;3.83;1.45;;;;;;;13.24;100.00;98410.06;5026690;28;20087;-79
2022/10/21 02:17:57;;;;;;;3.45;1.75;;;;;;;13.28;100.00;98420.13;4992561;28;20045;-78
2022/10/21 02:20:25;;;;;;;6.55;1.77;;;;;;;13.20;100.00;98418.66;5026963;28;20029;-76
2022/10/21 02:22:51;;;;;;;4.30;1.70;;;;;;;13.15;100.00;98410.50;5009149;28;20033;-81
2022/10/21 02:25:19;;;;;;;8.20;2.20;;;;;;;13.20;100.00;98415.13;4988893;28;20100;-77
2022/10/21 02:27:46;;;;;;;6.72;2.80;;;;;;;13.27;100.00;98398.78;5012579;28;20140;-78
2022/10/21 02:30:12;;;;;;;7.50;1.90;;;;;;;13.20;100.00;98383.59;5027486;28;20037;-77
2022/10/21 02:32:46;;;;;;;7.43;2.10;;;;;;;13.36;100.00;98383.78;4992901;28;20029;-79
2022/10/21 02:35:23;;;;;;;4.53;1.90;;;;;;;13.36;100.00;98360.31;5026691;28;20029;-78
2022/10/21 02:37:58;;;;;;;4.38;1.60;;;;;;;13.35;100.00;98365.97;5009643;28;20547;-77
2022/10/21 02:40:37;;;;;;;4.85;2.00;;;;;;;13.24;100.00;98361.50;5026308;28;20403;-77
2022/10/21 02:43:11;;;;;;;6.50;1.60;;;;;;;13.01;100.00;98349.06;5027123;28;20116;-76
2022/10/21 02:45:37;;;;;;;7.00;2.00;;;;;;;13.04;100.00;98373.63;5021980;28;20037;-77
2022/10/21 02:48:03;;;;;;;7.00;1.83;;;;;;;13.10;100.00;98372.66;4989779;28;20435;-77
2022/10/21 02:50:29;;;;;;;3.55;1.50;;;;;;;13.13;100.00;98366.75;5028702;28;20037;-77
2022/10/21 02:52:54;;;;;;;4.28;1.77;;;;;;;13.27;100.00;98347.53;5011082;28;20041;-78
2022/10/21 02:55:20;;;;;;;4.18;1.45;;;;;;;13.36;100.00;98344.13;5024484;28;20041;-78
2022/10/21 02:57:46;;;;;;;3.38;1.67;;;;;;;13.45;100.00;98335.59;5010276;28;20029;-77
2022/10/21 03:00:12;;;;;;;9.88;2.08;;;;;;;13.45;100.00;98331.00;5025449;28;20395;-76
2022/10/21 03:02:38;;;;;;;4.10;1.63;;;;;;;13.56;100.00;98338.13;4986838;28;20075;-76
2022/10/21 03:05:04;;;;;;;4.07;1.38;;;;;;;13.43;100.00;98308.81;5010979;28;20049;-77
2022/10/21 03:07:29;;;;;;;2.50;1.52;;;;;;;13.49;100.00;98309.69;4994549;28;20501;-76
2022/10/21 03:09:55;;;;;;;5.65;1.95;;;;;;;13.50;100.00;98295.94;5005135;28;20037;-76
2022/10/21 03:12:21;;;;;;;7.72;2.38;;;;;;;13.50;100.00;98295.13;5023283;28;20036;-76
2022/10/21 03:14:46;;;;;;;2.65;1.27;;;;;;;13.55;100.00;98292.50;4994962;28;20034;-77
2022/10/21 03:17:12;;;;;;;6.25;1.73;;;;;;;13.51;100.00;98296.75;5006984;28;20060;-79
2022/10/21 03:19:37;;;;;;;5.32;1.70;;;;;;;13.46;100.00;98265.13;4994769;28;20051;-77
2022/10/21 03:22:03;;;;;;;4.78;1.98;;;;;;;13.47;100.00;98282.13;5000898;28;20030;-79
2022/10/21 03:24:29;;;;;;;3.30;1.42;;;;;;;13.41;100.00;98290.19;5026438;28;20439;-76
2022/10/21 03:26:55;;;;;;;6.75;2.30;;;;;;;13.13;100.00;98264.22;5012243;28;20033;-78
2022/10/21 03:29:20;;;;;;;6.70;1.80;;;;;;;12.84;100.00;98249.34;5029958;28;20069;-77
2022/10/21 03:31:46;;;;;;;8.02;2.10;;;;;;;12.74;100.00;98255.41;4996435;28;20442;-76
2022/10/21 03:34:12;;;;;;;4.70;1.70;;;;;;;12.73;100.00;98259.19;5030249;28;20043;-77
2022/10/21 03:36:37;;;;;;;2.00;1.60;;;;;;;12.53;100.00;98219.31;5008940;28;20551;-76
2022/10/21 03:39:03;;;;;;;3.03;1.63;;;;;;;12.68;100.00;98222.19;5001420;28;20438;-76
2022/10/21 03:41:28;;;;;;;3.22;1.67;;;;;;;12.72;100.00;98230.56;5032669;28;20037;-78
2022/10/21 03:43:54;;;;;;;2.67;1.40;;;;;;;12.52;100.00;98217.69;5027824;28;20037;-76
2022/10/21 03:46:20;;;;;;;6.85;1.95;;;;;;;12.65;100.00;98214.59;4993236;28;20472;-77
2022/10/21 03:48:45;;;;;;;4.47;1.40;;;;;;;12.46;100.00;98194.41;5010183;28;20045;-76
2022/10/21 03:51:11;;;;;;;4.20;2.15;;;;;;;12.57;100.00;98195.34;4992415;28;20025;-77
2022/10/21 03:53:37;;;;;;;2.20;1.08;;;;;;;12.53;100.00;98190.47;5033994;28;20046;-78
2022/10/21 03:56:02;;;;;;;4.60;1.60;;;;;;;12.58;100.00;98184.31;5010015;28;20052;-76
2022/10/21 03:58:28;;;;;;;7.97;1.88;;;;;;;12.62;100.00;98171.16;5011516;28;20038;-77
2022/10/21 04:00:54;;;;;;;1507.45;751.95;;;;;;;12.68;100.00;98179.06;5009513;28;20037;-76
2022/10/21 04:03:20;;;;;;;1999.90;999.90;;;;;;;12.55;100.00;98165.97;5032836;28;20029;-77
2022/10/21 04:05:46;;;;;;;1999.90;999.90;;;;;;;12.55;100.00;98155.19;5027064;28;20029;-76
2022/10/21 04:08:11;;;;;;;1999.90;999.90;;;;;;;12.60;100.00;98159.81;5014661;28;20036;-77
2022/10/21 04:10:37;;;;;;;6.60;1.45;;;;;;;12.62;100.00;98145.03;5029229;28;20074;-76
2022/10/21 04:13:03;;;;;;;6.75;1.30;;;;;;;12.74;100.00;98153.78;5013971;28;20029;-78
2022/10/21 04:15:28;;;;;;;7.63;2.05;;;;;;;12.86;100.00;98158.19;5009117;28;20057;-77
2022/10/21 04:17:54;;;;;;;3.75;1.38;;;;;;;12.92;100.00;98138.31;5029799;28;20036;-78
2022/10/21 04:20:20;;;;;;;6.85;2.08;;;;;;;12.82;100.00;98139.00;5028338;28;20057;-77
2022/10/21 04:22:45;;;;;;;4.78;1.65;;;;;;;12.76;100.00;98130.06;5021255;28;20034;-78
2022/10/21 04:25:11;;;;;;;4.63;1.70;;;;;;;12.81;100.00;98110.44;5027915;28;20040;-77
2022/10/21 04:27:40;;;;;;;5.05;1.70;;;;;;;12.86;100.00;98118.56;5029263;28;20115;-81
2022/10/21 04:30:06;;;;;;;3.65;1.85;;;;;;;12.88;100.00;98119.13;5026068;28;21051;-77
2022/10/21 04:32:32;;;;;;;7.07;2.33;;;;;;;12.96;100.00;98118.66;5012976;28;20036;-77
2022/10/21 04:34:57;;;;;;;4.32;1.70;;;;;;;12.82;100.00;98093.19;5014583;28;20278;-76
2022/10/21 04:37:23;;;;;;;4.45;1.60;;;;;;;13.07;100.00;98113.34;5012050;28;20045;-77
2022/10/21 04:39:48;;;;;;;6.55;2.35;;;;;;;13.05;100.00;98100.13;5030434;28;20075;-78
2022/10/21 04:42:16;;;;;;;4.13;1.80;;;;;;;12.97;100.00;98087.94;5024355;28;20399;-78
2022/10/21 04:44:42;;;;;;;4.55;1.70;;;;;;;13.06;100.00;98085.56;5026011;28;20087;-78
2022/10/21 04:47:07;;;;;;;1.90;1.35;;;;;;;13.05;100.00;98085.84;5011941;28;20063;-77
2022/10/21 04:49:33;;;;;;;5.05;1.40;;;;;;;12.96;100.00;98085.47;5026577;28;20056;-78
2022/10/21 04:51:59;;;;;;;3.42;1.58;;;;;;;13.14;100.00;98089.69;5028315;28;20032;-78
2022/10/21 04:54:24;;;;;;;3.42;1.48;;;;;;;13.08;100.00;98071.81;5030945;28;20022;-80
2022/10/21 04:56:50;;;;;;;8.55;1.83;;;;;;;13.12;100.00;98073.72;5028603;28;20037;-79
2022/10/21 04:59:16;;;;;;;4.05;1.50;;;;;;;13.01;100.00;98052.34;5009795;28;20507;-78
2022/10/21 05:01:41;;;;;;;4.72;1.52;;;;;;;13.27;100.00;98081.16;5027029;28;20131;-80
2022/10/21 05:04:07;;;;;;;2.83;1.52;;;;;;;13.24;100.00;98068.16;5023145;28;20483;-78
2022/10/21 05:06:33;;;;;;;2.55;1.40;;;;;;;13.25;100.00;98058.19;5010850;28;20159;-78
2022/10/21 05:08:58;;;;;;;4.47;1.80;;;;;;;13.26;100.00;98052.56;5011075;28;20029;-77
2022/10/21 05:11:24;;;;;;;3.92;2.03;;;;;;;13.29;100.00;98037.75;5028878;28;20033;-81
2022/10/21 05:13:49;;;;;;;1.30;1.20;;;;;;;13.17;100.00;98038.69;5026566;28;20045;-78
2022/10/21 05:16:15;;;;;;;3.08;1.60;;;;;;;13.07;100.00;98033.25;5024748;28;20504;-78
2022/10/21 05:18:41;;;;;;;4.85;1.92;;;;;;;12.97;100.00;98001.63;5025723;28;20049;-78
2022/10/21 05:21:07;;;;;;;3.50;1.58;;;;;;;12.90;100.00;98016.38;5027087;28;20029;-79
2022/10/21 05:23:32;;;;;;;3.67;1.67;;;;;;;12.87;100.00;98006.94;5011900;28;20132;-80
2022/10/21 05:25:58;;;;;;;3.63;1.88;;;;;;;12.80;100.00;98014.41;5010682;28;20037;-81
2022/10/21 05:28:24;;;;;;;3.25;1.48;;;;;;;12.66;100.00;97987.06;5028860;28;20043;-78
2022/10/21 05:30:49;;;;;;;3.55;2.05;;;;;;;12.66;100.00;97972.78;5010049;28;20028;-80
2022/10/21 05:33:15;;;;;;;5.00;1.55;;;;;;;12.71;100.00;97989.81;5005488;28;20080;-79
2022/10/21 05:35:47;;;;;;;3.15;1.92;;;;;;;12.66;100.00;97973.59;5053394;28;20036;-79
2022/10/21 05:38:12;;;;;;;4.20;1.80;;;;;;;12.66;100.00;97995.16;5008540;28;20044;-78
2022/10/21 05:40:38;;;;;;;2.97;1.77;;;;;;;12.59;100.00;97978.38;5030228;28;20041;-80
2022/10/21 05:43:04;;;;;;;4.40;2.10;;;;;;;12.55;100.00;97974.59;5000252;28;20037;-80
2022/10/21 05:45:30;;;;;;;8.27;2.10;;;;;;;12.60;100.00;97971.13;5004955;28;20037;-80
2022/10/21 05:47:55;;;;;;;5.55;2.17;;;;;;;12.49;100.00;97944.09;5023733;28;20029;-78
2022/10/21 05:50:21;;;;;;;7.47;2.10;;;;;;;12.61;100.00;97956.56;5007767;28;21721;-80
2022/10/21 05:52:47;;;;;;;6.10;2.30;;;;;;;12.50;100.00;97937.63;5027696;28;20401;-79
2022/10/21 05:55:12;;;;;;;3.13;1.65;;;;;;;12.57;100.00;97936.59;5012496;28;20029;-78
2022/10/21 05:57:38;;;;;;;3.65;1.58;;;;;;;12.61;100.00;97961.97;5002091;28;20044;-77
2022/10/21 06:00:05;;;;;;;4.07;1.48;;;;;;;12.61;100.00;97943.09;5029075;28;20415;-77
2022/10/21 06:02:31;;;;;;;4.28;1.58;;;;;;;12.48;100.00;97917.38;5012880;28;20068;-77
2022/10/21 06:04:56;;;;;;;0.93;0.80;;;;;;;12.57;100.00;97932.03;5026776;28;20467;-78
2022/10/21 06:07:22;;;;;;;1.15;0.88;;;;;;;12.56;100.00;97935.78;4994255;28;20044;-78
2022/10/21 06:09:48;;;;;;;2.03;1.33;;;;;;;12.63;100.00;97936.38;5028849;28;20033;-79
2022/10/21 06:12:13;;;;;;;1.13;1.00;;;;;;;12.67;100.00;97937.47;5024327;28;20033;-77
2022/10/21 06:14:39;;;;;;;0.65;0.65;;;;;;;12.65;100.00;97926.16;5016550;28;20033;-77
2022/10/21 06:17:04;;;;;;;2.70;1.10;;;;;;;12.62;100.00;97915.91;5012758;28;20340;-78
2022/10/21 06:19:30;;;;;;;6.18;1.25;;;;;;;12.69;100.00;97911.06;5007885;28;20038;-77
2022/10/21 06:21:57;;;;;;;0.70;0.70;;;;;;;12.67;100.00;97909.72;5009313;28;20052;-78
2022/10/21 06:24:23;;;;;;;0.73;0.60;;;;;;;12.63;100.00;97882.47;5012375;28;20098;-77
2022/10/21 06:26:50;;;;;;;0.68;0.68;;;;;;;12.67;100.00;97883.56;5026246;28;20083;-76
2022/10/21 06:29:16;;;;;;;1.00;0.88;;;;;;;12.65;100.00;97737.47;5002178;28;20060;-76
2022/10/21 06:31:42;;;;;;;0.50;0.50;;;;;;;12.63;100.00;97870.88;5018752;28;20496;-77
2022/10/21 06:34:08;;;;;;;1.20;0.90;;;;;;;12.71;100.00;97830.75;5025215;28;20037;-76
2022/10/21 06:36:33;;;;;;;0.30;0.30;;;;;;;12.75;100.00;97876.88;4985272;28;20037;-77
2022/10/21 06:38:59;;;;;;;0.40;0.40;;;;;;;12.76;100.00;97867.72;4987485;28;20033;-78
2022/10/21 06:41:24;;;;;;;1.30;1.00;;;;;;;12.79;100.00;97874.47;5019472;28;20033;-79
2022/10/21 06:43:50;;;;;;;2.65;0.90;;;;;;;12.81;100.00;97889.31;4989756;28;20121;-77
2022/10/21 06:46:16;;;;;;;0.60;0.60;;;;;;;12.77;100.00;97861.25;4990069;28;20029;-77
2022/10/21 06:48:42;;;;;;;1.75;0.82;;;;;;;12.84;100.00;97882.59;4994882;28;20041;-76
2022/10/21 06:51:18;;;;;;;0.50;0.50;;;;;;;12.83;100.00;97880.97;5005705;28;20045;-77
2022/10/21 06:53:45;;;;;;;0.45;0.45;;;;;;;12.82;100.00;97877.47;5017084;28;20073;-79
2022/10/21 06:56:15;;;;;;;1.38;0.80;;;;;;;12.86;100.00;97886.66;5023968;28;20607;-79
2022/10/21 06:58:47;;;;;;;0.40;0.40;;;;;;;12.84;100.00;97869.13;5005871;28;20444;-79
2022/10/21 07:01:31;;;;;;;0.73;0.60;;;;;;;12.83;100.00;97854.00;4986533;28;20290;-78
2022/10/21 07:03:57;;;;;;;0.50;0.50;;;;;;;12.74;100.00;97862.59;5023574;28;20079;-78
2022/10/21 07:06:23;;;;;;;0.95;0.77;;;;;;;12.72;100.00;97858.53;5005587;28;20429;-78
2022/10/21 07:08:49;;;;;;;0.50;0.50;;;;;;;12.80;100.00;97819.47;5010249;28;20041;-78
2022/10/21 07:11:15;;;;;;;0.40;0.40;;;;;;;12.86;100.00;97850.78;4980792;28;20049;-80
2022/10/21 07:13:43;;;;;;;0.40;0.40;;;;;;;12.89;100.00;97852.97;5007014;28;20048;-77
2022/10/21 07:16:21;;;;;;;0.30;0.30;;;;;;;12.98;100.00;97859.47;4987846;28;20057;-78
2022/10/21 07:18:47;;;;;;;1.95;0.63;;;;;;;13.01;100.00;97858.94;5020471;28;20487;-81
2022/10/21 07:21:16;;;;;;;0.38;0.38;;;;;;;13.06;100.00;97856.28;4993326;28;20060;-78
2022/10/21 07:23:43;;;;;;;0.30;0.30;;;;;;;13.10;100.00;97854.69;4985688;28;20072;-79
2022/10/21 07:26:09;;;;;;;0.40;0.40;;;;;;;13.19;100.00;97861.19;4986969;28;20483;-79
2022/10/21 07:28:35;;;;;;;0.82;0.75;;;;;;;13.17;100.00;97844.44;5005057;28;20067;-79
2022/10/21 07:31:02;;;;;;;0.30;0.30;;;;;;;13.25;100.00;97853.13;5011509;28;20125;-79
2022/10/21 07:33:28;;;;;;;0.30;0.30;;;;;;;13.17;100.00;97825.56;4988597;28;20095;-78
2022/10/21 07:36:08;;;;;;;0.30;0.30;;;;;;;13.28;100.00;97826.44;4996476;28;20038;-80
2022/10/21 07:38:34;;;;;;;0.30;0.30;;;;;;;13.24;100.00;97822.63;4999113;28;20026;-78
2022/10/21 07:41:00;;;;;;;17.52;0.95;;;;;;;13.19;100.00;97822.59;5024860;28;20099;-79
2022/10/21 07:43:26;;;;;;;0.50;0.50;;;;;;;13.07;100.00;97797.75;5020610;28;20033;-80
2022/10/21 07:45:52;;;;;;;0.95;0.50;;;;;;;13.30;100.00;97842.38;5012908;28;20085;-81
2022/10/21 07:48:18;;;;;;;1.02;0.50;;;;;;;13.32;100.00;97835.63;4983702;28;20033;-79
2022/10/21 07:50:44;;;;;;;0.50;0.50;;;;;;;13.12;100.00;97746.50;5020461;28;20037;-80
2022/10/21 07:53:10;;;;;;;0.30;0.30;;;;;;;13.38;100.00;97828.34;5008220;28;20443;-79
2022/10/21 07:55:35;;;;;;;1.40;0.70;;;;;;;13.36;100.00;97825.94;5005996;28;20038;-78
2022/10/21 07:58:01;;;;;;;0.30;0.30;;;;;;;13.38;100.00;97831.88;5004730;28;20045;-77
2022/10/21 08:00:27;;;;;;;0.30;0.30;;;;;;;13.32;100.00;97829.44;4993512;28;20041;-79
2022/10/21 08:02:53;;;;;;;0.45;0.40;;;;;;;13.39;100.00;97838.09;5017414;28;20025;-79
2022/10/21 08:05:20;;;;;;;0.32;0.32;;;;;;;13.34;100.00;97824.59;5010005;28;20442;-80
2022/10/21 08:07:46;;;;;;;0.30;0.30;;;;;;;13.39;100.00;97835.41;5007531;28;20053;-78
2022/10/21 08:10:11;;;;;;;0.40;0.40;;;;;;;13.39;100.00;97833.50;5021598;28;20471;-77
2022/10/21 08:12:37;;;;;;;0.60;0.60;;;;;;;13.44;100.00;97826.47;5009518;28;20128;-78
2022/10/21 08:15:03;;;;;;;0.40;0.40;;;;;;;13.40;100.00;97812.72;5029330;28;20022;-79
2022/10/21 08:17:28;;;;;;;0.30;0.30;;;;;;;13.49;100.00;97827.31;5008772;28;20033;-80
2022/10/21 08:19:55;;;;;;;1.08;0.45;;;;;;;13.61;100.00;97833.28;4991615;28;20439;-79
2022/10/21 08:22:21;;;;;;;0.30;0.30;;;;;;;13.76;100.00;97840.59;5013693;28;20038;-78
2022/10/21 08:24:47;;;;;;;201.75;59.38;;;;;;;13.83;100.00;97841.13;4995088;28;20087;-79
2022/10/21 08:27:12;;;;;;;0.30;0.30;;;;;;;13.77;100.00;97817.09;5011884;28;20153;-79
2022/10/21 08:29:38;;;;;;;0.40;0.40;;;;;;;13.80;100.00;97814.66;5027047;28;20414;-79
2022/10/21 08:32:04;;;;;;;0.35;0.35;;;;;;;13.98;100.00;97829.53;5033528;28;20025;-80
2022/10/21 08:34:30;;;;;;;1.65;0.68;;;;;;;14.12;100.00;97834.41;5030618;28;20116;-81
2022/10/21 08:36:56;;;;;;;3.40;0.95;;;;;;;14.19;100.00;97822.25;5015602;28;20121;-80
2022/10/21 08:39:23;;;;;;;3.35;0.80;;;;;;;14.36;100.00;97826.56;5031481;28;20034;-82
2022/10/21 08:42:11;;;;;;;0.30;0.30;;;;;;;14.30;100.00;97826.56;5015306;28;20135;-82
2022/10/21 08:44:54;;;;;;;1.67;1.65;;;;;;;14.33;100.00;97816.28;4999215;28;20045;-81
2022/10/21 08:47:20;;;;;;;0.65;0.65;;;;;;;14.25;100.00;97818.44;4996942;28;20068;-82
2022/10/21 08:49:55;;;;;;;1.33;0.60;;;;;;;14.26;100.00;97827.38;5014216;28;20451;-85
2022/10/21 08:52:33;;;;;;;0.30;0.30;;;;;;;14.19;100.00;97835.75;5032101;28;20049;-82
2022/10/21 08:55:02;;;;;;;0.40;0.40;;;;;;;14.15;100.00;97806.84;5013034;28;20053;-82
2022/10/21 08:57:27;;;;;;;0.30;0.30;;;;;;;14.18;100.00;97822.50;5032192;28;20026;-83
2022/10/21 08:59:54;;;;;;;0.30;0.30;;;;;;;14.09;100.00;97819.56;5029880;28;20034;-81
2022/10/21 09:02:29;;;;;;;0.40;0.40;;;;;;;14.07;100.00;97813.59;4998676;28;20534;-83
2022/10/21 09:05:00;;;;;;;0.30;0.30;;;;;;;13.97;100.00;97800.91;5029906;28;20029;-83
2022/10/21 09:07:35;;;;;;;0.30;0.30;;;;;;;14.01;100.00;97818.19;5031678;28;20081;-81
2022/10/21 09:10:15;;;;;;;0.30;0.30;;;;;;;13.99;100.00;97809.53;5014377;28;20025;-83
2022/10/21 09:13:00;;;;;;;0.95;0.38;;;;;;;13.93;100.00;97802.53;5032062;28;20041;-82
2022/10/21 09:15:33;;;;;;;0.35;0.35;;;;;;;13.92;100.00;97803.63;5006098;28;20040;-83
2022/10/21 09:18:13;;;;;;;0.30;0.30;;;;;;;13.87;100.00;97798.22;5029798;28;20029;-85
2022/10/21 09:20:57;;;;;;;0.95;0.95;;;;;;;13.81;100.00;97793.88;5015573;28;20029;-82
2022/10/21 09:23:47;;;;;;;0.40;0.40;;;;;;;13.87;100.00;97786.59;5031121;28;20459;-79
2022/10/21 09:26:40;;;;;;;0.43;0.43;;;;;;;13.93;100.00;97786.31;5028689;28;20021;-76
2022/10/21 09:29:19;;;;;;;0.32;0.32;;;;;;;14.13;100.00;97784.69;4998387;28;20045;-79
2022/10/21 09:31:45;;;;;;;0.40;0.40;;;;;;;14.52;100.00;97788.44;5022710;28;20030;-76
2022/10/21 09:34:22;;;;;;;38.30;23.10;;;;;;;15.60;100.00;97785.25;4985845;28;20385;-75
2022/10/21 09:36:49;;;;;;;0.32;0.32;;;;;;;15.82;100.00;97795.69;5000226;28;20048;-75
2022/10/21 09:39:23;;;;;;;0.50;0.50;;;;;;;16.04;100.00;97795.25;4986136;28;20132;-75
2022/10/21 09:41:52;;;;;;;1.20;0.50;;;;;;;15.97;100.00;97797.47;5013525;28;20037;-75
2022/10/21 09:44:20;;;;;;;0.30;0.30;;;;;;;15.80;100.00;97792.47;4995438;28;20176;-79
2022/10/21 09:46:46;;;;;;;0.40;0.35;;;;;;;15.57;100.00;97788.53;5028228;28;20033;-76
2022/10/21 09:49:32;;;;;;;0.30;0.30;;;;;;;15.57;100.00;97780.41;4993280;28;20029;-76
2022/10/21 09:52:01;;;;;;;0.60;0.60;;;;;;;15.73;100.00;97795.47;5024133;28;20130;-76
2022/10/21 09:54:30;;;;;;;1.05;0.60;;;;;;;15.81;100.00;97797.59;5011858;28;20048;-78
2022/10/21 09:57:04;;;;;;;0.32;0.32;;;;;;;15.57;100.00;97796.66;4996777;28;20040;-77
2022/10/21 09:59:31;;;;;;;0.30;0.30;;;;;;;15.22;100.00;97790.34;5008634;28;20029;-75
2022/10/21 10:02:05;;;;;;;0.40;0.40;;;;;;;15.25;100.00;97797.91;4996466;28;20499;-79
2022/10/21 10:04:33;;;;;;;0.60;0.60;;;;;;;15.48;100.00;97795.59;5026916;28;20029;-75
2022/10/21 10:07:20;;;;;;;0.65;0.65;;;;;;;15.52;100.00;97792.06;5028127;28;20029;-76
2022/10/21 10:09:47;;;;;;;0.30;0.30;;;;;;;15.45;100.00;97793.47;5003647;28;20037;-78
2022/10/21 10:12:15;;;;;;;0.35;0.35;;;;;;;15.58;100.00;97809.09;5030030;28;20112;-77
2022/10/21 10:14:45;;;;;;;0.32;0.32;;;;;;;15.60;100.00;97796.88;5031561;28;20060;-76
2022/10/21 10:17:23;;;;;;;0.50;0.50;;;;;;;15.46;100.00;97812.16;5005583;28;20100;-76
2022/10/21 10:20:06;;;;;;;0.40;0.40;;;;;;;15.42;100.00;97805.66;5006848;28;21243;-76
2022/10/21 10:22:40;;;;;;;0.30;0.30;;;;;;;15.39;100.00;97815.16;5028253;28;20389;-75
2022/10/21 10:25:20;;;;;;;0.30;0.30;;;;;;;15.28;100.00;97802.78;4995536;28;20040;-76
2022/10/21 10:28:19;;;;;;;0.63;0.63;;;;;;;15.23;100.00;97818.22;5025835;28;20031;-76
2022/10/21 10:30:47;;;;;;;0.40;0.40;;;;;;;15.36;100.00;97818.41;4997202;28;20037;-77
2022/10/21 10:33:15;;;;;;;0.38;0.38;;;;;;;15.42;100.00;97804.84;5007499;28;20037;-76
2022/10/21 10:36:01;;;;;;;0.40;0.40;;;;;;;15.44;100.00;97827.06;5009634;28;20033;-75
2022/10/21 10:38:52;;;;;;;0.85;0.43;;;;;;;15.41;100.00;97823.00;5009013;28;20079;-80
2022/10/21 10:41:18;;;;;;;0.50;0.50;;;;;;;15.48;100.00;97820.81;4988261;28;20029;-76
2022/10/21 10:43:52;;;;;;;0.57;0.50;;;;;;;15.59;100.00;97824.28;4993074;28;20387;-78
2022/10/21 10:46:33;;;;;;;0.60;0.60;;;;;;;16.10;100.00;97831.25;5019319;28;20136;-78
2022/10/21 10:49:14;;;;;;;0.47;0.47;;;;;;;16.99;100.00;97837.22;5010108;28;20542;-76
2022/10/21 10:51:41;;;;;;;0.50;0.50;;;;;;;17.25;100.00;97834.16;5006787;28;20124;-75
2022/10/21 10:54:27;;;;;;;0.40;0.40;;;;;;;16.77;100.00;97837.69;5008043;28;20036;-75
2022/10/21 10:56:56;;;;;;;0.40;0.40;;;;;;;16.32;100.00;97845.16;5026576;28;20052;-77
2022/10/21 10:59:22;;;;;;;0.40;0.40;;;;;;;15.83;100.00;97844.19;5004312;28;20045;-76
2022/10/21 11:02:03;;;;;;;1.33;0.70;;;;;;;15.86;100.00;97839.28;5020207;28;20438;-78
2022/10/21 11:04:50;;;;;;;0.70;0.70;;;;;;;16.29;100.00;97834.88;5023064;28;20036;-77
2022/10/21 11:07:31;;;;;;;428.10;124.38;;;;;;;16.80;100.00;97830.88;5005686;28;20037;-75
2022/10/21 11:10:02;;;;;;;0.50;0.50;;;;;;;17.76;100.00;97847.09;5020242;28;20075;-75
2022/10/21 11:12:27;;;;;;;61.35;18.92;;;;;;;18.29;100.00;97867.78;5028009;28;20036;-78
2022/10/21 11:14:55;;;;;;;13.65;3.25;;;;;;;17.31;100.00;97862.91;4992623;28;20037;-77
2022/10/21 11:17:28;;;;;;;7.25;6.90;;;;;;;17.27;100.00;97864.56;5024851;28;20124;-80
2022/10/21 11:20:03;;;;;;;4.57;4.47;;;;;;;17.05;100.00;97852.31;5025809;28;20411;-76
2022/10/21 11:22:51;;;;;;;48.33;3.20;;;;;;;16.95;100.00;97876.88;5021851;28;20029;-77
2022/10/21 11:25:26;;;;;;;0.40;0.40;;;;;;;16.76;100.00;97873.25;5000492;28;20059;-78
2022/10/21 11:28:12;;;;;;;0.82;0.55;;;;;;;16.51;100.00;97874.28;5009623;28;20061;-79
2022/10/21 11:30:38;;;;;;;0.50;0.50;;;;;;;17.49;100.00;97873.00;5026180;28;20087;-79
2022/10/21 11:33:34;;;;;;;0.60;0.60;;;;;;;18.54;100.00;97867.34;5026789;28;20029;-76
2022/10/21 11:36:19;;;;;;;0.30;0.30;;;;;;;17.76;100.00;97868.81;5002976;28;20486;-77